Latest Weather Observations for Temora

IDN60801

Issued at 11:02 am EDT Monday 23 January 2017 (issued every 30 minutes, with the page automatically refreshed every 10 minutes)

About weather observations | Map of weather stations | Latest weather observations for NSW | Other Formats
Station Details ID: 073151 Name: TEMORA AIRPORT Lat: -34.43 Lon: 147.51 Height: 280.5 m
Data from the previous 72 hours. | See also: Recent months at Temora
Date/Time
EDT
Temp
°C
App
Temp
°C
Dew
Point
°C
Rel
Hum
%
Delta-T
°C
Wind Press
QNH
hPa
Press
MSL
hPa
Rain since
9am
mm
Dir  Spd
km/h
Gust
km/h
Spd
kts
Gust
kts
23/11:00am 34.3 31.8 18.8 40 10.3 N 30 37 16 20 1010.5 1009.0 -
23/10:30am 33.0 29.5 18.0 41 9.8 N 33 44 18 24 1010.6 1009.1 0.0
23/10:00am 32.7 29.5 17.3 39 9.9 N 30 39 16 21 1010.9 1009.4 0.0
23/09:30am 31.4 27.7 16.9 41 9.3 N 32 50 17 27 1011.2 1009.6 0.0
23/09:21am 30.7 26.6 15.9 40 9.3 N 32 50 17 27 1011.3 1009.7 0.0
23/09:00am 29.9 27.3 14.8 39 9.3 NNE 22 32 12 17 1011.6 1010.0 0.0
23/08:30am 28.1 24.8 14.0 42 8.5 NNE 24 35 13 19 1011.6 1010.0 0.0
23/08:00am 25.9 24.4 14.1 48 7.1 ENE 15 20 8 11 1011.6 1010.0 0.0
23/07:30am 24.4 23.1 13.6 51 6.4 ENE 13 15 7 8 1011.4 1009.8 0.0
23/07:00am 22.6 21.7 13.7 57 5.2 ENE 11 13 6 7 1011.2 1009.6 0.0
23/06:30am 21.8 20.8 13.4 59 4.9 ENE 11 13 6 7 1010.8 1009.3 0.0
23/06:00am 22.5 21.1 13.3 56 5.4 ENE 13 15 7 8 1010.6 1009.1 0.0
23/05:30am 22.4 21.8 13.5 57 5.2 ENE 9 11 5 6 1010.6 1009.1 0.0
23/05:00am 19.7 19.7 14.1 70 3.3 E 7 13 4 7 1010.5 1009.0 0.0
23/04:30am 19.7 21.2 15.6 77 2.5 E 2 9 1 5 1010.5 1009.0 0.0
23/04:00am 19.2 19.4 14.2 73 2.9 ENE 6 7 3 4 1010.3 1008.8 0.0
23/03:30am 19.2 20.3 14.7 75 2.7 ENE 2 7 1 4 1010.5 1009.0 0.0
23/03:00am 19.4 21.0 14.9 75 2.7 CALM 0 0 0 0 1010.7 1009.2 0.0
23/02:30am 19.8 21.4 15.0 74 2.9 CALM 0 0 0 0 1010.8 1009.3 0.0
23/02:00am 20.2 22.0 15.4 74 2.9 CALM 0 0 0 0 1010.9 1009.4 0.0
23/01:30am 19.9 20.3 13.8 68 3.6 N 4 7 2 4 1011.1 1009.5 0.0
23/01:00am 24.6 23.8 12.9 48 6.9 ENE 9 13 5 7 1011.2 1009.6 0.0
23/12:30am 20.9 22.3 14.3 66 3.9 CALM 0 0 0 0 1011.4 1009.8 0.0
23/12:00am 22.0 23.4 14.4 62 4.5 CALM 0 0 0 0 1011.6 1010.0 0.0
 
Date/Time
EDT
Temp
°C
App
Temp
°C
Dew
Point
°C
Rel
Hum
%
Delta-T
°C
Wind Press
QNH
hPa
Press
MSL
hPa
Rain since
9am
mm
Dir  Spd
km/h
Gust
km/h
Spd
kts
Gust
kts
22/11:30pm 22.7 23.9 13.7 56 5.3 CALM 0 0 0 0 1011.7 1010.1 0.0
22/11:00pm 23.2 24.4 13.9 56 5.5 CALM 0 0 0 0 1011.7 1010.1 0.0
22/10:30pm 24.1 25.3 13.9 53 6.1 CALM 0 0 0 0 1011.8 1010.2 0.0
22/10:00pm 25.7 26.4 12.2 43 7.9 CALM 0 0 0 0 1011.8 1010.2 0.0
22/09:30pm 27.5 28.0 11.5 37 9.3 CALM 0 0 0 0 1011.7 1010.1 0.0
22/09:00pm 28.1 27.0 10.8 34 9.9 NNE 7 9 4 5 1011.6 1010.0 0.0
22/08:30pm 28.8 26.4 10.0 31 10.7 N 13 15 7 8 1011.4 1009.8 0.0
22/08:00pm 31.4 28.7 9.0 25 12.7 N 13 15 7 8 1011.2 1009.6 0.0
22/07:30pm 33.2 31.7 8.6 22 14.0 N 6 11 3 6 1010.9 1009.4 0.0
22/07:00pm 33.8 31.0 8.4 21 14.4 N 13 19 7 10 1010.9 1009.4 0.0
22/06:30pm 34.9 32.3 7.9 19 15.3 NNW 11 22 6 12 1010.8 1009.3 0.0
22/06:00pm 34.6 31.2 7.6 19 15.2 NNW 15 26 8 14 1010.8 1009.3 0.0
22/05:30pm 35.1 32.2 8.0 19 15.4 N 13 24 7 13 1011.1 1009.5 0.0
22/05:00pm 34.9 32.3 7.9 19 15.3 WNW 11 17 6 9 1011.4 1009.8 0.0
22/04:30pm 35.5 33.4 9.8 21 15.0 NNE 11 20 6 11 1011.6 1010.0 0.0
22/04:00pm 35.0 33.4 10.1 22 14.6 E 9 20 5 11 1011.9 1010.3 0.0
22/03:30pm 34.2 32.0 8.0 20 14.8 N 9 20 5 11 1012.3 1010.7 0.0
22/03:00pm 33.6 31.8 9.6 23 13.9 E 9 17 5 9 1012.6 1011.0 0.0
22/02:30pm 32.6 30.2 10.0 25 13.1 N 13 24 7 13 1012.9 1011.3 0.0
22/02:00pm 32.4 29.3 10.4 26 12.8 NNE 17 26 9 14 1013.4 1011.8 0.0
22/01:30pm 32.6 29.6 10.6 26 12.9 NNW 17 26 9 14 1013.9 1012.4 0.0
22/01:00pm 31.5 29.4 12.3 31 11.5 NNE 15 26 8 14 1014.3 1012.8 0.0
22/12:30pm 30.3 28.0 13.1 34 10.3 NNE 17 24 9 13 1014.6 1013.1 0.0
22/12:00pm 29.5 27.7 13.3 37 9.7 N 15 22 8 12 1015.0 1013.4 0.0
22/11:30am 28.2 26.9 13.7 41 8.7 NNE 13 20 7 11 1015.3 1013.7 0.0
22/11:00am 26.9 25.5 14.6 46 7.5 NE 15 24 8 13 1015.5 1013.9 0.0
22/10:30am 26.0 24.7 14.8 50 6.8 NE 15 26 8 14 1015.7 1014.1 0.0
22/10:00am 24.3 21.9 13.8 52 6.2 NE 19 26 10 14 1015.8 1014.2 0.0
22/09:30am 23.4 21.2 14.4 57 5.4 ENE 19 24 10 13 1016.0 1014.4 0.0
22/09:00am 22.0 19.4 13.9 60 4.8 E 20 28 11 15 1016.2 1014.6 0.0
22/08:30am 20.5 17.1 13.7 65 4.0 E 24 30 13 16 1016.1 1014.5 0.0
22/08:00am 19.4 15.9 13.3 68 3.5 E 24 33 13 18 1015.9 1014.3 0.0
22/07:30am 18.4 16.2 13.3 72 2.9 E 17 24 9 13 1015.6 1014.0 0.0
22/07:00am 17.4 15.5 13.1 76 2.4 E 15 22 8 12 1015.4 1013.8 0.0
22/06:30am 17.0 14.7 12.9 77 2.3 E 17 24 9 13 1015.2 1013.6 0.0
22/06:00am 17.2 14.5 12.9 76 2.4 E 19 24 10 13 1015.0 1013.4 0.0
22/05:30am 17.3 14.4 12.8 75 2.5 E 20 26 11 14 1014.6 1013.1 0.0
22/05:00am 17.4 14.4 12.7 74 2.6 E 20 28 11 15 1014.4 1012.9 0.0
22/04:30am 17.5 15.1 12.6 73 2.8 E 17 24 9 13 1014.4 1012.9 0.0
22/04:00am 17.6 14.8 12.5 72 2.9 E 19 26 10 14 1014.1 1012.6 0.0
22/03:30am 17.6 15.2 12.5 72 2.9 E 17 24 9 13 1014.1 1012.6 0.0
22/03:00am 18.0 14.6 12.5 70 3.1 E 22 35 12 19 1013.9 1012.4 0.0
22/02:30am 18.1 14.6 12.3 69 3.3 E 22 33 12 18 1013.8 1012.3 0.0
22/02:00am 18.4 15.0 12.4 68 3.4 E 22 37 12 20 1013.7 1012.2 0.0
22/01:30am 18.9 15.5 12.4 66 3.7 E 22 32 12 17 1013.9 1012.4 0.0
22/01:00am 19.6 16.6 12.4 63 4.1 E 20 28 11 15 1013.6 1012.1 0.0
22/12:30am 20.4 17.3 12.1 59 4.7 E 20 26 11 14 1013.4 1011.8 0.0
22/12:00am 18.4 16.1 8.9 54 5.0 SSE 11 24 6 13 1013.0 1011.4 0.0
 
Date/Time
EDT
Temp
°C
App
Temp
°C
Dew
Point
°C
Rel
Hum
%
Delta-T
°C
Wind Press
QNH
hPa
Press
MSL
hPa
Rain since
9am
mm
Dir  Spd
km/h
Gust
km/h
Spd
kts
Gust
kts
21/11:30pm 17.2 16.1 10.8 66 3.5 S 7 9 4 5 1012.5 1010.9 0.0
21/11:00pm 17.1 15.6 10.5 65 3.6 SSW 9 9 5 5 1012.5 1010.9 0.0
21/10:30pm 18.3 16.9 9.6 57 4.7 SSW 7 9 4 5 1012.4 1010.8 0.0
21/10:00pm 19.5 18.2 9.1 51 5.6 SSW 6 7 3 4 1012.3 1010.7 0.0
21/09:30pm 20.9 20.0 10.7 52 5.6 SSW 6 7 3 4 1012.2 1010.6 0.0
21/09:00pm 22.6 20.9 8.3 40 7.7 SSW 7 9 4 5 1012.0 1010.4 0.0
21/08:30pm 25.1 22.7 5.3 28 10.2 SSW 7 11 4 6 1011.7 1010.1 0.0
21/08:00pm 28.2 24.8 3.8 21 12.5 SSW 11 17 6 9 1011.6 1010.0 0.0
21/07:30pm 29.7 25.3 2.9 18 13.6 SW 15 20 8 11 1011.2 1009.6 0.0
21/07:00pm 30.4 25.6 2.6 17 14.1 SSW 17 20 9 11 1010.8 1009.3 0.0
21/06:30pm 31.0 26.9 2.3 16 14.5 SSW 13 22 7 12 1010.6 1009.1 0.0
21/06:00pm 31.0 26.8 3.9 18 14.1 SW 15 24 8 13 1010.4 1008.9 0.0
21/05:30pm 31.3 26.9 4.9 19 14.0 SSW 17 32 9 17 1010.3 1008.8 0.0
21/05:00pm 31.2 27.2 4.9 19 13.9 WSW 15 28 8 15 1010.5 1009.0 0.0
21/04:30pm 31.2 27.7 5.6 20 13.7 SW 13 26 7 14 1010.7 1009.2 0.0
21/04:00pm 31.0 27.3 6.1 21 13.4 SW 15 24 8 13 1010.9 1009.4 0.0
21/03:30pm 30.4 25.8 5.6 21 13.2 SSW 19 28 10 15 1011.1 1009.5 0.0
21/03:00pm 30.4 25.9 4.2 19 13.7 SSW 17 28 9 15 1011.2 1009.6 0.0
21/02:30pm 29.9 25.6 5.2 21 13.0 SW 17 24 9 13 1011.3 1009.7 0.0
21/02:00pm 28.8 24.1 2.9 19 13.1 S 17 28 9 15 1011.4 1009.8 0.0
21/01:30pm 28.3 24.4 5.2 23 12.1 SSW 15 24 8 13 1011.4 1009.8 0.0
21/01:00pm 27.9 23.9 6.6 26 11.4 SW 17 28 9 15 1011.5 1009.9 0.0
21/12:30pm 26.1 22.4 8.1 32 9.8 S 17 24 9 13 1011.8 1010.2 0.0
21/12:00pm 26.1 23.3 9.9 36 9.1 S 15 24 8 13 1012.0 1010.4 0.0
21/11:30am 24.6 20.7 9.3 38 8.4 S 20 28 11 15 1012.1 1010.5 0.0
21/11:00am 23.4 19.4 8.3 38 8.1 S 19 32 10 17 1012.2 1010.6 0.0
21/10:30am 22.8 19.1 8.1 39 7.8 S 17 22 9 12 1012.2 1010.6 0.0
21/10:00am 21.4 17.3 8.0 42 7.1 SSE 19 24 10 13 1012.1 1010.5 0.0
21/09:30am 20.7 17.7 9.3 48 6.1 S 15 22 8 12 1011.9 1010.3 0.0
21/09:00am 18.2 15.8 11.3 64 3.8 S 15 20 8 11 1011.8 1010.2 9.0
21/08:30am 16.5 14.2 11.6 73 2.7 SSW 15 20 8 11 1011.6 1010.0 9.0
21/08:00am 14.4 11.9 11.0 80 1.8 SSW 15 19 8 10 1011.3 1009.7 9.0
21/07:30am 13.1 10.8 10.3 83 1.5 SSW 13 19 7 10 1011.1 1009.5 9.0
21/07:00am 12.2 10.2 10.3 88 1.0 SSW 11 13 6 7 1010.5 1009.0 9.0
21/06:30am 10.8 8.9 9.1 89 0.9 SSW 9 11 5 6 1010.4 1008.9 9.0
21/06:00am 11.5 10.3 9.4 87 1.1 S 6 9 3 5 1009.9 1008.3 9.0
21/05:30am 12.3 12.2 9.5 83 1.4 CALM 0 7 0 4 1009.3 1007.7 9.0
21/05:00am 12.7 10.6 9.7 82 1.6 SSW 11 17 6 9 1008.6 1007.0 9.0
21/04:30am 13.2 10.3 9.6 79 1.9 SSW 15 20 8 11 1007.9 1006.3 9.0
21/04:00am 13.5 10.2 9.6 77 2.0 SW 17 26 9 14 1007.6 1006.0 9.0
21/03:30am 13.9 10.6 9.7 76 2.2 SW 17 26 9 14 1007.7 1006.1 9.0
21/03:00am 14.5 11.2 9.7 73 2.5 SW 17 26 9 14 1007.1 1005.5 9.0
21/02:30am 14.7 12.2 9.7 72 2.6 SW 13 20 7 11 1007.1 1005.5 9.0
21/02:00am 15.1 12.3 9.9 71 2.8 SW 15 24 8 13 1006.9 1005.3 9.0
21/01:30am 15.5 11.9 9.8 69 3.0 SW 19 28 10 15 1007.1 1005.5 9.0
21/01:00am 16.1 13.7 10.2 68 3.2 SW 13 22 7 12 1007.0 1005.4 9.0
21/12:30am 16.6 13.1 10.2 66 3.4 SW 19 28 10 15 1006.3 1004.7 9.0
21/12:00am 17.1 14.0 10.2 64 3.7 SW 17 24 9 13 1006.0 1004.4 9.0
 
Date/Time
EDT
Temp
°C
App
Temp
°C
Dew
Point
°C
Rel
Hum
%
Delta-T
°C
Wind Press
QNH
hPa
Press
MSL
hPa
Rain since
9am
mm
Dir  Spd
km/h
Gust
km/h
Spd
kts
Gust
kts
20/11:30pm 17.4 14.7 10.3 63 3.8 SW 15 24 8 13 1005.7 1004.1 9.0
20/11:00pm 18.4 14.9 10.3 59 4.4 SW 19 28 10 15 1005.1 1003.5 9.0
20/10:30pm 18.7 15.6 10.3 58 4.6 SSW 17 24 9 13 1004.9 1003.3 9.0
20/10:00pm 19.7 15.4 10.7 56 5.0 SW 24 39 13 21 1004.3 1002.7 9.0
20/09:30pm 20.4 17.2 11.1 55 5.2 SW 19 30 10 16 1003.6 1001.9 9.0
20/09:00pm 20.9 17.7 11.8 56 5.2 WSW 20 30 11 16 1002.8 1001.2 9.0
20/08:30pm 22.0 18.3 11.4 51 6.0 SW 22 32 12 17 1002.0 1000.4 9.0
20/08:09pm 22.8 18.2 12.4 52 6.0 SW 28 46 15 25 1001.5 999.9 9.0
20/08:00pm 23.4 18.7 13.3 53 5.9 SW 30 46 16 25 1001.4 999.8 9.0
20/07:30pm 25.1 21.0 14.9 53 6.2 WSW 30 44 16 24 1000.5 998.8 9.0
20/07:00pm 25.7 22.4 15.1 52 6.5 SW 26 39 14 21 999.6 998.0 9.0
20/06:30pm 26.0 21.5 15.4 52 6.5 WSW 33 46 18 25 999.1 997.5 9.0
20/06:00pm 25.2 21.5 16.1 57 5.7 WSW 30 46 16 25 998.8 997.2 9.0
20/05:33pm 25.0 21.2 17.2 62 4.9 SW 33 56 18 30 998.9 997.3 8.8
20/05:30pm 25.3 22.1 18.5 66 4.4 SW 33 46 18 25 998.9 997.3 8.8
20/05:00pm 24.0 21.3 19.3 75 3.1 SW 32 50 17 27 998.8 997.2 8.8
20/04:30pm 23.3 21.4 20.2 83 2.0 SW 30 48 16 26 998.6 997.0 8.8
20/04:00pm 22.8 20.9 20.9 89 1.3 SW 32 52 17 28 998.3 996.7 8.8
20/03:35pm 22.2 21.2 21.2 94 0.7 WSW 28 46 15 25 998.1 996.5 8.8
20/03:30pm 22.0 20.0 20.8 93 0.8 WSW 32 46 17 25 998.2 996.6 8.6
20/03:02pm 23.0 19.0 21.3 90 1.1 W 44 65 24 35 997.8 996.2 3.6
20/03:00pm 23.3 19.3 21.2 88 1.4 W 44 65 24 35 997.8 996.2 3.4
20/02:59pm 23.9 20.0 21.4 86 1.7 W 44 65 24 35 997.7 996.1 3.0
20/02:30pm 29.5 27.6 22.7 67 4.7 WNW 37 56 20 30 996.8 995.1 2.2
20/02:09pm 28.4 28.1 23.8 76 3.2 WNW 32 50 17 27 997.0 995.3 2.2
20/02:00pm 27.0 25.9 23.5 81 2.4 WNW 35 48 19 26 997.2 995.5 2.2
20/01:51pm 26.6 26.8 23.5 83 2.1 WNW 28 46 15 25 997.5 995.8 2.2
20/01:30pm 26.3 27.7 25.4 95 0.6 WNW 28 35 15 19 998.0 996.4 2.2
20/01:00pm 24.8 23.0 22.3 86 1.7 WNW 35 50 19 27 998.6 997.0 1.0
20/12:30pm 27.1 24.2 21.6 72 3.7 WNW 39 57 21 31 998.7 997.1 0.8
20/12:26pm 26.9 24.4 21.6 72 3.6 WNW 37 57 20 31 998.8 997.2 0.8
20/12:00pm 27.1 25.8 22.1 74 3.4 WNW 32 46 17 25 998.9 997.3 0.8
20/11:42am 26.5 25.1 21.9 76 3.1 WNW 32 50 17 27 999.1 997.5 0.8
20/11:30am 26.2 26.3 21.2 74 3.3 WNW 22 35 12 19 999.2 997.6 0.8

Other Formats:

Comma delimited format used in spreadsheet applications
http://www.bom.gov.au/fwo/IDN60801/IDN60801.95722.axf

JavaScript Object Notation format (JSON) in row-major order
http://www.bom.gov.au/fwo/IDN60801/IDN60801.95722.json